This is the latest recevied weather packets stored in our database for station/object KO4RJX-11. If no packets are shown the sender has not sent any weather packets the latest 10 day(s).
| Time | Temp. | Humidity | Pressure | Rain* | Wind** | Luminosity | Snow |
|---|---|---|---|---|---|---|---|
| 1777403591 | 19.44° C | 52% | 1013.7 hPa | 0 mm | - | - | - |
| 1777401191 | 19.44° C | 49% | 1014.1 hPa | 0 mm | - | - | - |
| 1777398391 | 18.33° C | 48% | 1014.8 hPa | 0 mm | - | - | - |
| 1777397991 | 18.89° C | 49% | 1015.1 hPa | 0 mm | - | - | - |
| 1777397591 | 18.33° C | 49% | 1014.8 hPa | 0 mm | - | - | - |
| 1777396391 | 17.78° C | 49% | 1014.4 hPa | 0 mm | - | - | - |
| 1777394792 | 16.67° C | 57% | 1015.4 hPa | 0 mm | - | - | - |
| 1777393191 | 16.11° C | 54% | 1014.4 hPa | 0 mm | - | - | - |
| 1777391992 | 16.67° C | 56% | 1014.1 hPa | 0 mm | - | - | - |
| 1777389723 | 16.11° C | 53% | 1016.1 hPa | 0 mm | - | - | - |
| 1777388791 | 15.56° C | 55% | 1016.8 hPa | 0 mm | - | - | - |
| 1777387591 | 15° C | 58% | 1017.5 hPa | 0 mm | - | - | - |
| 1777386791 | 15° C | 58% | 1017.8 hPa | 0 mm | - | - | - |
| 1777384392 | 15° C | 57% | 1018.5 hPa | 0 mm | - | - | - |
| 1777383991 | 14.44° C | 58% | 1018.5 hPa | 0 mm | - | - | - |
| 1777380791 | 13.33° C | 62% | 1019.9 hPa | 0 mm | - | - | - |
| 1777369991 | 7.22° C | 90% | 1016.5 hPa | 0 mm | - | - | - |
| 1777369592 | 7.22° C | 93% | 1016.8 hPa | 0 mm | - | - | - |
| 1777368790 | 7.22° C | 90% | 1016.5 hPa | 0 mm | - | - | - |
| 1777367990 | 7.22° C | 92% | 1016.5 hPa | 0 mm | - | - | - |
| 1777365990 | 7.78° C | 87% | 1016.8 hPa | 0 mm | - | - | - |
| 1777363590 | 7.78° C | 91% | 1016.8 hPa | 0 mm | - | - | - |
| 1777362520 | 7.78° C | 89% | 1017.5 hPa | 0 mm | - | - | - |
| 1777359990 | 8.33° C | 89% | 1017.8 hPa | 0 mm | - | - | - |
| 1777357990 | 8.89° C | 82% | 1017.8 hPa | 0 mm | - | - | - |
* Rain since midnight (hover to see other rain measurements)
** Current wind speed in m/s (hover to see current wind gust speed)